createdAt,value
2023-05-19T00:01:13.648Z,1.92
2023-05-19T00:03:52.515Z,2.38
2023-05-19T00:06:24.893Z,2.57
2023-05-19T00:09:05.416Z,2.13
2023-05-19T00:11:32.145Z,2.00
2023-05-19T00:14:00.330Z,2.20
2023-05-19T00:16:28.807Z,2.65
2023-05-19T00:18:57.159Z,1.83
2023-05-19T00:21:23.942Z,2.00
2023-05-19T00:23:50.493Z,2.25
2023-05-19T00:26:16.967Z,1.98
2023-05-19T00:28:43.530Z,2.10
2023-05-19T00:31:09.970Z,2.43
2023-05-19T00:33:36.566Z,1.90
2023-05-19T00:36:04.261Z,2.40
2023-05-19T00:38:32.277Z,2.42
2023-05-19T00:41:00.060Z,2.30
2023-05-19T00:43:26.643Z,2.13
2023-05-19T00:45:53.225Z,3.08
2023-05-19T00:48:19.718Z,2.17
2023-05-19T00:50:46.497Z,2.75
2023-05-19T00:53:14.869Z,2.47
2023-05-19T00:55:42.701Z,3.30
2023-05-19T00:58:10.342Z,2.28
2023-05-19T01:00:37.168Z,1.70
2023-05-19T01:03:11.227Z,2.10
2023-05-19T01:05:44.629Z,2.38
2023-05-19T01:08:11.404Z,2.30
2023-05-19T01:10:37.882Z,2.17
2023-05-19T01:13:06.401Z,2.40
2023-05-19T01:15:57.647Z,2.50
2023-05-19T01:18:32.508Z,2.35
2023-05-19T01:21:25.108Z,2.47
2023-05-19T01:23:54.199Z,2.65
2023-05-19T01:26:59.250Z,2.20
2023-05-19T01:29:51.119Z,2.15
2023-05-19T01:32:20.893Z,2.75
2023-05-19T01:34:50.280Z,2.00
2023-05-19T01:37:17.918Z,2.25
2023-05-19T01:39:45.603Z,2.38
2023-05-19T01:42:14.380Z,3.10
2023-05-19T01:44:41.699Z,2.13
2023-05-19T01:47:09.539Z,2.30
2023-05-19T01:49:36.105Z,2.20
2023-05-19T01:52:02.702Z,2.65
2023-05-19T01:54:29.161Z,2.42
2023-05-19T01:57:40.751Z,2.72
2023-05-19T02:00:32.076Z,2.17
2023-05-19T02:03:07.757Z,2.75
2023-05-19T02:05:34.129Z,1.80
2023-05-19T02:08:16.982Z,2.60
2023-05-19T02:10:49.549Z,2.85
2023-05-19T02:13:20.148Z,2.67
2023-05-19T02:15:48.604Z,2.38
2023-05-19T02:18:17.927Z,2.20
2023-05-19T02:20:44.509Z,2.42
2023-05-19T02:23:11.046Z,2.95
2023-05-19T02:25:37.521Z,2.40
2023-05-19T02:28:04.187Z,2.80
2023-05-19T02:30:32.001Z,3.05
2023-05-19T02:32:58.748Z,2.67
2023-05-19T02:35:25.210Z,2.47
2023-05-19T02:37:51.619Z,2.93
2023-05-19T02:40:18.229Z,2.67
2023-05-19T02:42:44.674Z,2.60
2023-05-19T02:45:11.594Z,2.42
2023-05-19T02:47:38.420Z,2.75
2023-05-19T02:50:06.030Z,2.73
2023-05-19T02:52:32.470Z,2.10
2023-05-19T02:54:59.074Z,3.78
2023-05-19T02:57:26.714Z,2.53
2023-05-19T02:59:53.202Z,2.83
2023-05-19T03:02:19.709Z,2.77
2023-05-19T03:04:46.270Z,3.03
2023-05-19T03:07:16.375Z,3.15
2023-05-19T03:09:42.829Z,2.70
2023-05-19T03:12:09.356Z,3.20
2023-05-19T03:14:37.777Z,2.57
2023-05-19T03:17:07.473Z,2.90
2023-05-19T03:19:33.893Z,2.53
2023-05-19T03:22:00.307Z,3.65
2023-05-19T03:24:26.754Z,3.17
2023-05-19T03:26:53.245Z,3.20
2023-05-19T03:29:19.724Z,2.58
2023-05-19T03:31:46.111Z,2.97
2023-05-19T03:34:12.554Z,2.67
2023-05-19T03:36:39.821Z,2.88
2023-05-19T03:39:06.937Z,3.03
2023-05-19T03:41:33.422Z,2.60
2023-05-19T03:44:01.390Z,2.92
2023-05-19T03:46:27.950Z,3.05
2023-05-19T03:48:54.472Z,2.65
2023-05-19T03:51:20.886Z,2.50
2023-05-19T03:53:48.603Z,2.85
2023-05-19T03:56:18.096Z,3.00
2023-05-19T03:58:45.058Z,3.00
2023-05-19T04:01:12.030Z,3.78
2023-05-19T04:03:38.613Z,2.80
2023-05-19T04:06:05.219Z,2.85
2023-05-19T04:08:32.161Z,3.92
2023-05-19T04:10:58.755Z,2.92
2023-05-19T04:13:25.395Z,2.58
2023-05-19T04:15:52.197Z,2.87
2023-05-19T04:18:18.677Z,3.42
2023-05-19T04:20:45.102Z,3.25
2023-05-19T04:23:11.637Z,3.03
2023-05-19T04:25:38.268Z,3.40
2023-05-19T04:28:04.690Z,3.27
2023-05-19T04:30:31.404Z,3.33
2023-05-19T04:32:59.180Z,3.30
2023-05-19T04:35:25.785Z,3.40
2023-05-19T04:37:54.369Z,3.63
2023-05-19T04:40:23.614Z,2.90
2023-05-19T04:42:52.280Z,3.30
2023-05-19T04:45:18.817Z,3.17
2023-05-19T04:47:46.965Z,3.45
2023-05-19T04:50:14.201Z,3.00
2023-05-19T04:52:42.439Z,3.40
2023-05-19T04:55:11.293Z,3.25
2023-05-19T04:57:38.812Z,3.53
2023-05-19T05:00:08.971Z,3.13
2023-05-19T05:02:35.474Z,3.65
2023-05-19T05:05:02.493Z,3.00
2023-05-19T05:07:30.840Z,3.78
2023-05-19T05:09:58.638Z,3.60
2023-05-19T05:12:25.382Z,3.08
2023-05-19T05:14:52.178Z,3.63
2023-05-19T05:17:19.429Z,3.37
2023-05-19T05:19:46.250Z,3.35
2023-05-19T05:22:13.170Z,3.50
2023-05-19T05:24:39.883Z,3.30
2023-05-19T05:27:08.211Z,3.53
2023-05-19T05:29:34.947Z,4.43
2023-05-19T05:32:01.503Z,3.80
2023-05-19T05:34:28.257Z,3.95
2023-05-19T05:36:54.960Z,3.65
2023-05-19T05:39:21.486Z,3.53
2023-05-19T05:41:48.013Z,3.97
2023-05-19T05:44:14.464Z,3.85
2023-05-19T05:46:41.287Z,4.55
2023-05-19T05:49:08.390Z,4.10
2023-05-19T05:51:35.786Z,4.03
2023-05-19T05:54:03.063Z,4.70
2023-05-19T05:56:29.934Z,3.90
2023-05-19T05:58:56.735Z,3.90
2023-05-19T06:01:23.888Z,4.28
2023-05-19T06:03:50.476Z,4.10
2023-05-19T06:06:17.002Z,4.57
2023-05-19T06:08:43.543Z,4.22
2023-05-19T06:11:10.293Z,3.97
2023-05-19T06:13:36.943Z,4.32
2023-05-19T06:16:04.010Z,4.03
2023-05-19T06:18:30.571Z,4.30
2023-05-19T06:20:57.145Z,4.30
2023-05-19T06:23:25.182Z,3.78
2023-05-19T06:25:51.671Z,4.35
2023-05-19T06:28:18.194Z,4.30
2023-05-19T06:30:44.634Z,3.70
2023-05-19T06:33:11.296Z,4.13
2023-05-19T06:35:38.088Z,4.32
2023-05-19T06:38:04.583Z,3.83
2023-05-19T06:40:31.204Z,4.55
2023-05-19T06:42:57.752Z,3.90
2023-05-19T06:45:24.172Z,4.10
2023-05-19T06:47:50.804Z,3.80
2023-05-19T06:50:17.385Z,4.40
2023-05-19T06:52:44.332Z,3.72
2023-05-19T06:55:10.796Z,4.60
2023-05-19T06:57:37.239Z,4.13
2023-05-19T07:00:05.111Z,4.15
2023-05-19T07:02:31.983Z,3.60
2023-05-19T07:04:58.545Z,4.00
2023-05-19T07:07:24.988Z,4.03
2023-05-19T07:09:51.510Z,3.40
2023-05-19T07:12:18.017Z,3.60
2023-05-19T07:14:44.595Z,3.83
2023-05-19T07:17:11.151Z,3.63
2023-05-19T07:19:37.568Z,3.40
2023-05-19T07:22:04.423Z,4.18
2023-05-19T07:24:31.696Z,3.50
2023-05-19T07:26:58.559Z,4.50
2023-05-19T07:29:25.115Z,3.95
2023-05-19T07:31:57.784Z,3.40
2023-05-19T07:34:24.839Z,3.25
2023-05-19T07:36:54.304Z,2.83
2023-05-19T07:39:21.091Z,3.10
2023-05-19T07:41:52.699Z,3.28
2023-05-19T07:44:19.336Z,2.83
2023-05-19T07:46:45.982Z,2.92
2023-05-19T07:49:12.455Z,2.88
2023-05-19T07:51:38.935Z,2.70
2023-05-19T07:54:05.534Z,2.50
2023-05-19T07:56:31.988Z,2.90
2023-05-19T07:58:58.440Z,2.65
2023-05-19T08:01:24.937Z,2.40
2023-05-19T08:03:51.465Z,2.15
2023-05-19T08:06:17.979Z,2.30
2023-05-19T08:08:44.480Z,1.90
2023-05-19T08:11:10.860Z,2.05
2023-05-19T08:13:37.298Z,1.92
2023-05-19T08:16:03.910Z,1.75
2023-05-19T08:18:30.714Z,1.58
2023-05-19T08:20:57.217Z,1.80
2023-05-19T08:23:23.801Z,1.75
2023-05-19T08:25:50.231Z,1.50
2023-05-19T08:28:16.906Z,1.65
2023-05-19T08:30:43.371Z,1.90
2023-05-19T08:33:09.913Z,1.33
2023-05-19T08:35:36.476Z,1.50
2023-05-19T08:38:03.026Z,1.70
2023-05-19T08:40:32.038Z,1.73
2023-05-19T08:42:58.677Z,1.25
2023-05-19T08:45:25.102Z,1.40
2023-05-19T08:47:52.040Z,1.40
2023-05-19T08:50:27.086Z,1.17
2023-05-19T08:53:15.090Z,1.20
2023-05-19T08:55:58.930Z,1.13
2023-05-19T08:58:28.124Z,1.50
2023-05-19T09:00:56.850Z,1.20
2023-05-19T09:03:26.547Z,1.40
2023-05-19T09:05:53.221Z,1.50
2023-05-19T09:08:19.809Z,1.13
2023-05-19T09:10:46.320Z,1.70
2023-05-19T09:13:12.810Z,1.60
2023-05-19T09:15:41.250Z,1.90
2023-05-19T09:18:12.649Z,1.38
2023-05-19T09:20:44.279Z,1.20
2023-05-19T09:23:17.461Z,1.23
2023-05-19T09:25:48.147Z,1.20
2023-05-19T09:28:14.729Z,1.50
2023-05-19T09:30:41.211Z,1.60
2023-05-19T09:33:10.110Z,1.42
2023-05-19T09:35:37.081Z,1.30
2023-05-19T09:38:03.607Z,1.63
2023-05-19T09:40:30.578Z,1.90
2023-05-19T09:42:57.074Z,1.42
2023-05-19T09:45:27.260Z,1.85
2023-05-19T09:47:53.976Z,1.50
2023-05-19T09:50:20.515Z,1.50
2023-05-19T09:52:48.244Z,1.52
2023-05-19T09:55:15.520Z,1.45
2023-05-19T09:57:42.027Z,1.50
2023-05-19T10:00:14.540Z,1.50
2023-05-19T10:02:45.521Z,1.60
2023-05-19T10:05:17.153Z,1.15
2023-05-19T10:07:45.708Z,1.30
2023-05-19T10:10:13.919Z,1.10
2023-05-19T10:12:41.066Z,1.37
2023-05-19T10:15:12.038Z,1.17
2023-05-19T10:17:40.674Z,1.33
2023-05-19T10:20:15.841Z,1.27
2023-05-19T10:22:44.996Z,1.63
2023-05-19T10:25:15.040Z,1.53
2023-05-19T10:27:55.232Z,1.40
2023-05-19T10:30:40.750Z,1.50
2023-05-19T10:33:12.182Z,1.55
2023-05-19T10:36:24.654Z,1.13
2023-05-19T10:39:05.120Z,1.23
2023-05-19T10:41:46.979Z,1.40
2023-05-19T10:44:21.188Z,1.58
2023-05-19T10:46:47.775Z,1.27
2023-05-19T10:49:22.721Z,1.10
2023-05-19T10:51:50.013Z,1.47
2023-05-19T10:54:18.354Z,1.40
2023-05-19T10:56:47.485Z,1.90
2023-05-19T10:59:35.621Z,1.40
2023-05-19T11:02:06.149Z,1.30
2023-05-19T11:04:49.567Z,1.67
2023-05-19T11:07:19.711Z,1.50
2023-05-19T11:09:51.356Z,1.58
2023-05-19T11:12:25.375Z,1.85
2023-05-19T11:14:55.474Z,1.40
2023-05-19T11:17:24.602Z,1.33
2023-05-19T11:19:56.015Z,0.90
2023-05-19T11:22:24.876Z,1.08
2023-05-19T11:24:53.553Z,1.13
2023-05-19T11:27:34.340Z,1.17
2023-05-19T11:30:08.115Z,1.03
2023-05-19T11:32:38.922Z,1.20
2023-05-19T11:35:06.646Z,0.70
2023-05-19T11:37:33.315Z,1.02
2023-05-19T11:40:02.099Z,1.10
2023-05-19T11:42:28.724Z,0.90
2023-05-19T11:44:56.096Z,1.30
2023-05-19T11:47:22.822Z,1.05
2023-05-19T11:49:51.903Z,1.48
2023-05-19T11:52:22.590Z,1.45
2023-05-19T11:54:49.672Z,1.73
2023-05-19T11:57:16.576Z,1.20
2023-05-19T11:59:48.056Z,1.42
2023-05-19T12:02:18.041Z,1.30
2023-05-19T12:04:44.642Z,1.55
2023-05-19T12:07:13.058Z,1.00
2023-05-19T12:09:40.020Z,0.85
2023-05-19T12:12:07.732Z,0.85
2023-05-19T12:14:34.509Z,1.33
2023-05-19T12:17:11.343Z,1.10
2023-05-19T12:19:38.681Z,1.30
2023-05-19T12:22:07.060Z,1.13
2023-05-19T12:24:35.602Z,1.35
2023-05-19T12:27:07.488Z,1.10
2023-05-19T12:29:34.591Z,1.00
2023-05-19T12:32:01.840Z,1.30
2023-05-19T12:34:28.650Z,0.77
2023-05-19T12:36:55.114Z,1.05
2023-05-19T12:39:22.646Z,1.17
2023-05-19T12:41:49.153Z,1.08
2023-05-19T12:44:16.670Z,0.80
2023-05-19T12:46:44.365Z,1.98
2023-05-19T12:49:11.036Z,2.08
2023-05-19T12:51:37.576Z,2.50
2023-05-19T12:54:06.985Z,2.13
2023-05-19T12:56:33.490Z,1.67
2023-05-19T12:59:01.659Z,0.93
2023-05-19T13:01:29.475Z,1.38
2023-05-19T13:03:56.382Z,1.10
2023-05-19T13:06:23.119Z,1.38
2023-05-19T13:08:49.565Z,1.87
2023-05-19T13:11:16.046Z,1.50
2023-05-19T13:13:43.906Z,1.25
2023-05-19T13:16:10.626Z,1.70
2023-05-19T13:18:38.352Z,1.58
2023-05-19T13:21:05.734Z,1.63
2023-05-19T13:23:32.400Z,1.70
2023-05-19T13:25:59.365Z,1.60
2023-05-19T13:28:26.338Z,1.65
2023-05-19T13:30:52.885Z,1.90
2023-05-19T13:33:19.519Z,1.70
2023-05-19T13:35:46.034Z,1.40
2023-05-19T13:38:12.515Z,2.58
2023-05-19T13:40:39.810Z,1.50
2023-05-19T13:43:07.349Z,1.85
2023-05-19T13:45:33.854Z,1.20
2023-05-19T13:48:00.412Z,1.20
2023-05-19T13:50:26.876Z,1.00
2023-05-19T13:52:53.888Z,0.80
2023-05-19T13:55:20.767Z,1.92
2023-05-19T13:57:47.257Z,1.27
2023-05-19T14:00:14.491Z,1.58
2023-05-19T14:02:41.242Z,1.10
2023-05-19T14:05:08.533Z,1.52
2023-05-19T14:07:35.518Z,1.30
2023-05-19T14:10:03.060Z,1.27
2023-05-19T14:12:41.566Z,1.70
2023-05-19T14:15:14.433Z,1.20
2023-05-19T14:17:41.079Z,1.33
2023-05-19T14:20:08.401Z,0.77
2023-05-19T14:22:34.892Z,1.07
2023-05-19T14:25:02.200Z,1.13
2023-05-19T14:27:28.644Z,0.95
2023-05-19T14:29:55.116Z,1.00
2023-05-19T14:32:22.559Z,1.10
2023-05-19T14:34:52.833Z,1.30
2023-05-19T14:37:20.014Z,1.25
2023-05-19T14:39:46.442Z,1.10
2023-05-19T14:42:12.861Z,1.20
2023-05-19T14:44:39.360Z,1.42
2023-05-19T14:47:07.389Z,1.10
2023-05-19T14:49:34.023Z,1.17
2023-05-19T14:52:00.764Z,1.02
2023-05-19T14:54:27.183Z,1.20
2023-05-19T14:56:53.754Z,1.23
2023-05-19T14:59:21.609Z,1.03
2023-05-19T15:01:48.281Z,1.00
2023-05-19T15:04:14.914Z,0.88
2023-05-19T15:06:41.698Z,1.00
2023-05-19T15:09:08.566Z,1.10
2023-05-19T15:11:35.027Z,1.10
2023-05-19T15:14:01.525Z,1.15
2023-05-19T15:16:28.241Z,1.20
2023-05-19T15:18:54.896Z,1.00
2023-05-19T15:21:21.363Z,1.10
2023-05-19T15:23:47.824Z,1.30
2023-05-19T15:26:14.526Z,1.20
2023-05-19T15:28:41.110Z,1.17
2023-05-19T15:31:07.727Z,1.00
2023-05-19T15:33:34.956Z,1.08
2023-05-19T15:36:01.410Z,0.80
2023-05-19T15:38:29.839Z,1.05
2023-05-19T15:40:56.812Z,1.08
2023-05-19T15:43:23.755Z,1.00
2023-05-19T15:45:52.228Z,1.20
2023-05-19T15:48:19.113Z,1.30
2023-05-19T15:50:45.739Z,1.40
2023-05-19T15:53:12.213Z,1.10
2023-05-19T15:55:38.695Z,1.02
2023-05-19T15:58:05.136Z,1.20
2023-05-19T16:00:32.100Z,1.30
2023-05-19T16:02:58.836Z,0.82
2023-05-19T16:05:25.645Z,1.08
2023-05-19T16:07:52.030Z,1.20
2023-05-19T16:10:18.487Z,1.08
2023-05-19T16:12:45.460Z,1.30
2023-05-19T16:15:11.877Z,2.10
2023-05-19T16:17:38.362Z,1.15
2023-05-19T16:20:06.092Z,1.20
2023-05-19T16:22:32.809Z,1.00
2023-05-19T16:24:59.250Z,1.10
2023-05-19T16:27:25.664Z,1.25
2023-05-19T16:29:52.131Z,1.63
2023-05-19T16:32:18.797Z,2.13
2023-05-19T16:34:45.410Z,1.17
2023-05-19T16:37:11.911Z,1.23
2023-05-19T16:39:38.482Z,1.30
2023-05-19T16:42:05.229Z,1.25
2023-05-19T16:44:31.860Z,1.20
2023-05-19T16:46:58.357Z,1.20
2023-05-19T16:49:24.807Z,2.17
2023-05-19T16:51:52.878Z,1.25
2023-05-19T16:54:19.604Z,1.10
2023-05-19T16:56:46.179Z,1.30
2023-05-19T16:59:12.776Z,1.27
2023-05-19T17:01:39.341Z,1.10
2023-05-19T17:04:05.850Z,1.38
2023-05-19T17:06:32.349Z,1.10
2023-05-19T17:08:59.128Z,1.67
2023-05-19T17:11:27.163Z,1.40
2023-05-19T17:13:53.808Z,1.47
2023-05-19T17:16:20.260Z,1.15
2023-05-19T17:18:47.947Z,1.20
2023-05-19T17:21:14.577Z,1.27
2023-05-19T17:23:41.528Z,1.10
2023-05-19T17:26:08.062Z,1.00
2023-05-19T17:28:34.644Z,1.13
2023-05-19T17:31:01.471Z,1.30
2023-05-19T17:33:27.984Z,1.25
2023-05-19T17:35:54.508Z,1.10
2023-05-19T17:38:20.958Z,1.40
2023-05-19T17:40:47.467Z,1.30
2023-05-19T17:43:13.969Z,1.23
2023-05-19T17:45:40.465Z,1.13
2023-05-19T17:48:06.995Z,1.05
2023-05-19T17:50:33.836Z,0.93
2023-05-19T17:53:00.677Z,1.25
2023-05-19T17:55:29.879Z,0.95
2023-05-19T17:57:57.592Z,1.10
2023-05-19T18:00:25.290Z,1.13
2023-05-19T18:02:52.455Z,1.10
2023-05-19T18:05:19.539Z,1.20
2023-05-19T18:07:46.172Z,0.70
2023-05-19T18:10:15.375Z,0.98
2023-05-19T18:12:42.001Z,0.80
2023-05-19T18:15:08.712Z,0.90
2023-05-19T18:17:35.171Z,1.13
2023-05-19T18:20:01.797Z,0.95
2023-05-19T18:22:28.371Z,1.20
2023-05-19T18:24:54.901Z,0.90
2023-05-19T18:27:21.394Z,1.00
2023-05-19T18:29:47.868Z,1.02
2023-05-19T18:32:16.848Z,0.95
2023-05-19T18:34:43.403Z,1.55
2023-05-19T18:37:09.858Z,1.40
2023-05-19T18:39:37.215Z,1.20
2023-05-19T18:42:03.762Z,1.02
2023-05-19T18:44:30.558Z,0.95
2023-05-19T18:46:57.073Z,1.63
2023-05-19T18:49:24.963Z,1.10
2023-05-19T18:51:51.791Z,1.33
2023-05-19T18:54:18.363Z,1.67
2023-05-19T18:56:44.865Z,1.45
2023-05-19T18:59:11.435Z,1.00
2023-05-19T19:01:38.088Z,1.00
2023-05-19T19:04:04.689Z,1.37
2023-05-19T19:06:31.617Z,1.00
2023-05-19T19:08:58.049Z,1.33
2023-05-19T19:11:24.553Z,2.10
2023-05-19T19:13:51.424Z,2.15
2023-05-19T19:16:18.127Z,1.20
2023-05-19T19:18:44.665Z,1.20
2023-05-19T19:21:11.408Z,1.50
2023-05-19T19:23:37.974Z,1.33
2023-05-19T19:26:04.441Z,1.27
2023-05-19T19:28:31.068Z,0.87
2023-05-19T19:30:57.537Z,1.05
2023-05-19T19:33:24.639Z,1.33
2023-05-19T19:35:51.495Z,1.33
2023-05-19T19:38:17.968Z,0.98
2023-05-19T19:40:44.418Z,1.10
2023-05-19T19:43:11.065Z,1.20
2023-05-19T19:45:39.524Z,1.20
2023-05-19T19:48:07.037Z,1.30
2023-05-19T19:50:34.423Z,1.48
2023-05-19T19:53:01.347Z,3.40
2023-05-19T19:55:28.822Z,3.20
2023-05-19T19:57:55.398Z,2.60
2023-05-19T20:00:21.859Z,2.13
2023-05-19T20:03:03.425Z,1.45
2023-05-19T20:05:31.804Z,1.33
2023-05-19T20:07:58.407Z,1.20
2023-05-19T20:10:24.949Z,1.25
2023-05-19T20:12:51.802Z,1.30
2023-05-19T20:15:18.435Z,1.67
2023-05-19T20:17:44.887Z,1.50
2023-05-19T20:20:12.231Z,1.67
2023-05-19T20:22:39.116Z,1.50
2023-05-19T20:25:06.166Z,3.10
2023-05-19T20:27:32.675Z,2.00
2023-05-19T20:29:59.204Z,3.10
2023-05-19T20:32:25.893Z,3.00
2023-05-19T20:34:52.399Z,2.85
2023-05-19T20:37:18.844Z,2.78
2023-05-19T20:39:45.330Z,2.90
2023-05-19T20:42:12.240Z,2.80
2023-05-19T20:44:39.006Z,2.33
2023-05-19T20:47:08.110Z,2.30
2023-05-19T20:49:35.031Z,3.00
2023-05-19T20:52:01.562Z,2.13
2023-05-19T20:54:28.152Z,2.33
2023-05-19T20:56:54.781Z,2.80
2023-05-19T20:59:21.354Z,3.40
2023-05-19T21:01:48.060Z,2.78
2023-05-19T21:04:14.621Z,2.72
2023-05-19T21:06:41.144Z,2.80
2023-05-19T21:09:07.799Z,3.20
2023-05-19T21:11:34.351Z,2.90
2023-05-19T21:14:03.895Z,2.70
2023-05-19T21:16:31.142Z,2.63
2023-05-19T21:18:57.655Z,2.47
2023-05-19T21:21:24.171Z,2.60
2023-05-19T21:23:50.761Z,3.75
2023-05-19T21:26:17.557Z,2.80
2023-05-19T21:28:44.241Z,2.53
2023-05-19T21:31:10.854Z,2.30
2023-05-19T21:33:37.349Z,2.75
2023-05-19T21:36:03.962Z,2.60
2023-05-19T21:38:30.685Z,2.65
2023-05-19T21:40:57.135Z,2.15
2023-05-19T21:43:23.902Z,2.30
2023-05-19T21:45:50.471Z,2.80
2023-05-19T21:48:17.025Z,2.38
2023-05-19T21:50:43.534Z,2.33
2023-05-19T21:53:10.061Z,2.20
2023-05-19T21:55:36.528Z,2.40
2023-05-19T21:58:03.078Z,2.30
2023-05-19T22:00:29.557Z,2.50
2023-05-19T22:02:56.171Z,2.40
2023-05-19T22:05:22.677Z,2.50
2023-05-19T22:07:49.134Z,2.80
2023-05-19T22:10:15.587Z,2.35
2023-05-19T22:12:42.069Z,2.00
2023-05-19T22:15:09.178Z,2.30
2023-05-19T22:17:35.616Z,2.13
2023-05-19T22:20:02.085Z,2.27
2023-05-19T22:22:28.557Z,1.77
2023-05-19T22:24:55.272Z,2.10
2023-05-19T22:27:21.679Z,2.83
2023-05-19T22:29:48.088Z,2.30
2023-05-19T22:32:17.907Z,2.13
2023-05-19T22:34:44.803Z,2.25
2023-05-19T22:37:11.984Z,2.58
2023-05-19T22:39:39.091Z,2.15
2023-05-19T22:42:05.974Z,2.50
2023-05-19T22:44:32.442Z,2.30
2023-05-19T22:46:58.941Z,2.67
2023-05-19T22:49:27.313Z,2.42
2023-05-19T22:51:53.794Z,2.33
2023-05-19T22:54:20.477Z,3.10
2023-05-19T22:56:48.715Z,2.10
2023-05-19T22:59:17.877Z,2.85
2023-05-19T23:01:46.513Z,2.25
2023-05-19T23:04:13.951Z,2.45
2023-05-19T23:06:40.668Z,2.50
2023-05-19T23:09:07.128Z,2.50
2023-05-19T23:11:34.488Z,2.63
2023-05-19T23:14:01.099Z,2.50
2023-05-19T23:16:27.534Z,1.98
2023-05-19T23:18:53.988Z,2.38
2023-05-19T23:21:20.509Z,2.33
2023-05-19T23:23:47.057Z,2.42
2023-05-19T23:26:13.666Z,2.33
2023-05-19T23:28:42.179Z,1.95
2023-05-19T23:31:08.784Z,2.50
2023-05-19T23:33:35.465Z,2.40
2023-05-19T23:36:07.730Z,2.50
2023-05-19T23:38:34.852Z,2.33
2023-05-19T23:41:01.386Z,2.67
2023-05-19T23:43:27.934Z,2.20
2023-05-19T23:45:54.491Z,2.50
2023-05-19T23:48:21.109Z,2.83
2023-05-19T23:50:47.538Z,3.25
2023-05-19T23:53:14.427Z,2.25
2023-05-19T23:55:40.895Z,2.20
2023-05-19T23:58:07.318Z,2.67
